sensor_id;sensor_type;location;lat;lon;timestamp;temperature;humidity
64833;HTU21D;51290;45.060;38.948;2023-04-03T00:01:39;12.12;45.20
64833;HTU21D;51290;45.060;38.948;2023-04-03T00:04:06;12.16;45.19
64833;HTU21D;51290;45.060;38.948;2023-04-03T00:06:32;12.18;45.21
64833;HTU21D;51290;45.060;38.948;2023-04-03T00:08:58;12.20;45.22
64833;HTU21D;51290;45.060;38.948;2023-04-03T00:11:24;12.25;45.25
64833;HTU21D;51290;45.060;38.948;2023-04-03T00:13:50;12.27;45.26
64833;HTU21D;51290;45.060;38.948;2023-04-03T00:16:17;12.31;45.25
64833;HTU21D;51290;45.060;38.948;2023-04-03T00:18:43;12.34;45.24
64833;HTU21D;51290;45.060;38.948;2023-04-03T00:21:12;12.36;45.22
64833;HTU21D;51290;45.060;38.948;2023-04-03T00:23:38;12.40;45.23
64833;HTU21D;51290;45.060;38.948;2023-04-03T00:26:04;12.40;45.23
64833;HTU21D;51290;45.060;38.948;2023-04-03T00:28:30;12.40;45.23
64833;HTU21D;51290;45.060;38.948;2023-04-03T00:30:56;12.40;45.25
64833;HTU21D;51290;45.060;38.948;2023-04-03T00:33:22;12.42;45.25
64833;HTU21D;51290;45.060;38.948;2023-04-03T00:35:50;12.41;45.28
64833;HTU21D;51290;45.060;38.948;2023-04-03T00:38:16;12.42;45.28
64833;HTU21D;51290;45.060;38.948;2023-04-03T00:40:44;12.41;45.31
64833;HTU21D;51290;45.060;38.948;2023-04-03T00:43:14;12.40;45.33
64833;HTU21D;51290;45.060;38.948;2023-04-03T00:45:42;12.41;45.35
64833;HTU21D;51290;45.060;38.948;2023-04-03T00:48:16;12.43;45.37
64833;HTU21D;51290;45.060;38.948;2023-04-03T00:50:44;12.43;45.38
64833;HTU21D;51290;45.060;38.948;2023-04-03T00:53:17;12.44;45.38
64833;HTU21D;51290;45.060;38.948;2023-04-03T00:55:44;12.45;45.39
64833;HTU21D;51290;45.060;38.948;2023-04-03T00:58:12;12.45;45.39
64833;HTU21D;51290;45.060;38.948;2023-04-03T01:00:40;12.44;45.41
64833;HTU21D;51290;45.060;38.948;2023-04-03T01:03:08;12.45;45.42
64833;HTU21D;51290;45.060;38.948;2023-04-03T01:05:35;12.46;45.42
64833;HTU21D;51290;45.060;38.948;2023-04-03T01:08:02;12.48;45.45
64833;HTU21D;51290;45.060;38.948;2023-04-03T01:10:28;12.48;45.47
64833;HTU21D;51290;45.060;38.948;2023-04-03T01:12:54;12.52;45.47
64833;HTU21D;51290;45.060;38.948;2023-04-03T01:15:26;12.53;45.48
64833;HTU21D;51290;45.060;38.948;2023-04-03T01:17:56;12.56;45.46
64833;HTU21D;51290;45.060;38.948;2023-04-03T01:20:44;12.57;45.45
64833;HTU21D;51290;45.060;38.948;2023-04-03T01:25:57;12.59;45.41
64833;HTU21D;51290;45.060;38.948;2023-04-03T01:28:29;12.59;45.41
64833;HTU21D;51290;45.060;38.948;2023-04-03T01:31:06;12.58;45.41
64833;HTU21D;51290;45.060;38.948;2023-04-03T01:33:35;12.59;45.40
64833;HTU21D;51290;45.060;38.948;2023-04-03T01:36:02;12.59;45.43
64833;HTU21D;51290;45.060;38.948;2023-04-03T01:38:28;12.62;45.43
64833;HTU21D;51290;45.060;38.948;2023-04-03T01:40:54;12.63;45.38
64833;HTU21D;51290;45.060;38.948;2023-04-03T01:43:21;12.67;45.38
64833;HTU21D;51290;45.060;38.948;2023-04-03T01:45:47;12.70;45.35
64833;HTU21D;51290;45.060;38.948;2023-04-03T01:48:16;12.72;45.35
64833;HTU21D;51290;45.060;38.948;2023-04-03T01:50:42;12.76;45.29
64833;HTU21D;51290;45.060;38.948;2023-04-03T01:53:08;12.78;45.29
64833;HTU21D;51290;45.060;38.948;2023-04-03T01:55:34;12.80;45.27
64833;HTU21D;51290;45.060;38.948;2023-04-03T01:58:00;12.84;45.23
64833;HTU21D;51290;45.060;38.948;2023-04-03T02:00:26;12.85;45.25
64833;HTU21D;51290;45.060;38.948;2023-04-03T02:02:53;12.86;45.28
64833;HTU21D;51290;45.060;38.948;2023-04-03T02:05:19;12.85;45.29
64833;HTU21D;51290;45.060;38.948;2023-04-03T02:07:45;12.84;45.35
64833;HTU21D;51290;45.060;38.948;2023-04-03T02:10:11;12.82;45.44
64833;HTU21D;51290;45.060;38.948;2023-04-03T02:12:38;12.79;45.52
64833;HTU21D;51290;45.060;38.948;2023-04-03T02:15:04;12.79;45.60
64833;HTU21D;51290;45.060;38.948;2023-04-03T02:17:30;12.76;45.75
64833;HTU21D;51290;45.060;38.948;2023-04-03T02:19:56;12.73;45.89
64833;HTU21D;51290;45.060;38.948;2023-04-03T02:22:23;12.72;45.95
64833;HTU21D;51290;45.060;38.948;2023-04-03T02:24:50;12.70;46.04
64833;HTU21D;51290;45.060;38.948;2023-04-03T02:27:17;12.69;46.24
64833;HTU21D;51290;45.060;38.948;2023-04-03T02:29:43;12.69;46.41
64833;HTU21D;51290;45.060;38.948;2023-04-03T02:32:09;12.67;46.60
64833;HTU21D;51290;45.060;38.948;2023-04-03T02:34:36;12.66;47.30
64833;HTU21D;51290;45.060;38.948;2023-04-03T02:37:02;12.65;47.92
64833;HTU21D;51290;45.060;38.948;2023-04-03T02:39:28;12.64;48.04
64833;HTU21D;51290;45.060;38.948;2023-04-03T02:41:56;12.63;48.64
64833;HTU21D;51290;45.060;38.948;2023-04-03T02:44:24;12.62;48.65
64833;HTU21D;51290;45.060;38.948;2023-04-03T02:46:51;12.59;48.84
64833;HTU21D;51290;45.060;38.948;2023-04-03T02:49:17;12.57;49.21
64833;HTU21D;51290;45.060;38.948;2023-04-03T02:51:44;12.53;49.97
64833;HTU21D;51290;45.060;38.948;2023-04-03T02:54:10;12.45;50.56
64833;HTU21D;51290;45.060;38.948;2023-04-03T02:56:39;12.32;51.87
64833;HTU21D;51290;45.060;38.948;2023-04-03T02:59:05;12.19;52.40
64833;HTU21D;51290;45.060;38.948;2023-04-03T03:01:34;12.04;52.83
64833;HTU21D;51290;45.060;38.948;2023-04-03T03:04:01;11.89;53.56
64833;HTU21D;51290;45.060;38.948;2023-04-03T03:06:27;11.75;54.13
64833;HTU21D;51290;45.060;38.948;2023-04-03T03:08:54;11.61;54.24
64833;HTU21D;51290;45.060;38.948;2023-04-03T03:11:20;11.48;54.51
64833;HTU21D;51290;45.060;38.948;2023-04-03T03:13:46;11.40;54.63
64833;HTU21D;51290;45.060;38.948;2023-04-03T03:16:12;11.30;55.33
64833;HTU21D;51290;45.060;38.948;2023-04-03T03:18:38;11.24;55.62
64833;HTU21D;51290;45.060;38.948;2023-04-03T03:21:05;11.18;55.71
64833;HTU21D;51290;45.060;38.948;2023-04-03T03:23:31;11.13;56.11
64833;HTU21D;51290;45.060;38.948;2023-04-03T03:26:01;11.09;55.96
64833;HTU21D;51290;45.060;38.948;2023-04-03T03:28:27;11.09;55.79
64833;HTU21D;51290;45.060;38.948;2023-04-03T03:30:53;11.07;55.75
64833;HTU21D;51290;45.060;38.948;2023-04-03T03:33:20;11.05;55.91
64833;HTU21D;51290;45.060;38.948;2023-04-03T03:35:46;11.04;55.99
64833;HTU21D;51290;45.060;38.948;2023-04-03T03:38:12;11.03;55.98
64833;HTU21D;51290;45.060;38.948;2023-04-03T03:40:38;10.99;55.97
64833;HTU21D;51290;45.060;38.948;2023-04-03T03:43:04;10.97;56.05
64833;HTU21D;51290;45.060;38.948;2023-04-03T03:45:31;10.93;56.16
64833;HTU21D;51290;45.060;38.948;2023-04-03T03:47:57;10.93;56.30
64833;HTU21D;51290;45.060;38.948;2023-04-03T03:50:23;10.90;56.77
64833;HTU21D;51290;45.060;38.948;2023-04-03T03:52:50;10.90;57.03
64833;HTU21D;51290;45.060;38.948;2023-04-03T03:55:16;10.92;57.26
64833;HTU21D;51290;45.060;38.948;2023-04-03T03:57:43;10.93;57.71
64833;HTU21D;51290;45.060;38.948;2023-04-03T04:00:10;10.94;58.09
64833;HTU21D;51290;45.060;38.948;2023-04-03T04:02:47;10.97;58.15
64833;HTU21D;51290;45.060;38.948;2023-04-03T04:05:16;11.00;58.37
64833;HTU21D;51290;45.060;38.948;2023-04-03T04:07:42;11.01;58.65
64833;HTU21D;51290;45.060;38.948;2023-04-03T04:10:09;11.02;59.67
64833;HTU21D;51290;45.060;38.948;2023-04-03T04:12:36;11.02;59.51
64833;HTU21D;51290;45.060;38.948;2023-04-03T04:15:02;11.04;59.99
64833;HTU21D;51290;45.060;38.948;2023-04-03T04:17:29;11.05;60.04
64833;HTU21D;51290;45.060;38.948;2023-04-03T04:19:56;11.08;60.22
64833;HTU21D;51290;45.060;38.948;2023-04-03T04:22:22;11.10;60.18
64833;HTU21D;51290;45.060;38.948;2023-04-03T04:24:48;11.11;60.31
64833;HTU21D;51290;45.060;38.948;2023-04-03T04:27:14;11.13;60.63
64833;HTU21D;51290;45.060;38.948;2023-04-03T04:29:42;11.15;60.82
64833;HTU21D;51290;45.060;38.948;2023-04-03T04:32:08;11.17;60.86
64833;HTU21D;51290;45.060;38.948;2023-04-03T04:34:34;11.18;61.28
64833;HTU21D;51290;45.060;38.948;2023-04-03T04:37:01;11.19;61.89
64833;HTU21D;51290;45.060;38.948;2023-04-03T04:39:27;11.22;62.55
64833;HTU21D;51290;45.060;38.948;2023-04-03T04:41:56;11.23;62.76
64833;HTU21D;51290;45.060;38.948;2023-04-03T04:44:25;11.23;62.98
64833;HTU21D;51290;45.060;38.948;2023-04-03T04:46:51;11.20;62.96
64833;HTU21D;51290;45.060;38.948;2023-04-03T04:49:17;11.20;62.85
64833;HTU21D;51290;45.060;38.948;2023-04-03T04:51:43;11.20;62.89
64833;HTU21D;51290;45.060;38.948;2023-04-03T04:54:10;11.20;62.99
64833;HTU21D;51290;45.060;38.948;2023-04-03T04:56:37;11.20;63.06
64833;HTU21D;51290;45.060;38.948;2023-04-03T04:59:03;11.20;62.95
64833;HTU21D;51290;45.060;38.948;2023-04-03T05:01:30;11.22;63.02
64833;HTU21D;51290;45.060;38.948;2023-04-03T05:04:04;11.19;63.40
64833;HTU21D;51290;45.060;38.948;2023-04-03T05:06:30;11.20;63.50
64833;HTU21D;51290;45.060;38.948;2023-04-03T05:08:59;11.20;63.88
64833;HTU21D;51290;45.060;38.948;2023-04-03T05:11:25;11.22;63.89
64833;HTU21D;51290;45.060;38.948;2023-04-03T05:13:52;11.22;64.05
64833;HTU21D;51290;45.060;38.948;2023-04-03T05:16:20;11.24;64.28
64833;HTU21D;51290;45.060;38.948;2023-04-03T05:18:46;11.26;64.30
64833;HTU21D;51290;45.060;38.948;2023-04-03T05:21:17;11.28;64.34
64833;HTU21D;51290;45.060;38.948;2023-04-03T05:23:50;11.31;64.43
64833;HTU21D;51290;45.060;38.948;2023-04-03T05:26:16;11.31;64.45
64833;HTU21D;51290;45.060;38.948;2023-04-03T05:28:45;11.34;64.47
64833;HTU21D;51290;45.060;38.948;2023-04-03T05:31:13;11.40;64.43
64833;HTU21D;51290;45.060;38.948;2023-04-03T05:33:38;11.46;64.36
64833;HTU21D;51290;45.060;38.948;2023-04-03T05:36:08;11.52;64.42
64833;HTU21D;51290;45.060;38.948;2023-04-03T05:38:39;11.56;64.43
64833;HTU21D;51290;45.060;38.948;2023-04-03T05:41:06;11.60;64.60
64833;HTU21D;51290;45.060;38.948;2023-04-03T05:43:32;11.67;64.76
64833;HTU21D;51290;45.060;38.948;2023-04-03T05:46:01;11.71;64.82
64833;HTU21D;51290;45.060;38.948;2023-04-03T05:48:28;11.77;64.76
64833;HTU21D;51290;45.060;38.948;2023-04-03T05:50:54;11.84;64.77
64833;HTU21D;51290;45.060;38.948;2023-04-03T05:53:27;11.87;64.89
64833;HTU21D;51290;45.060;38.948;2023-04-03T05:55:55;11.90;64.81
64833;HTU21D;51290;45.060;38.948;2023-04-03T05:58:22;11.91;64.79
64833;HTU21D;51290;45.060;38.948;2023-04-03T06:00:50;11.91;64.87
64833;HTU21D;51290;45.060;38.948;2023-04-03T06:03:16;11.89;65.08
64833;HTU21D;51290;45.060;38.948;2023-04-03T06:05:43;11.88;65.21
64833;HTU21D;51290;45.060;38.948;2023-04-03T06:08:10;11.88;65.31
64833;HTU21D;51290;45.060;38.948;2023-04-03T06:10:36;11.90;65.50
64833;HTU21D;51290;45.060;38.948;2023-04-03T06:13:02;11.91;65.56
64833;HTU21D;51290;45.060;38.948;2023-04-03T06:15:28;11.92;65.76
64833;HTU21D;51290;45.060;38.948;2023-04-03T06:17:54;11.92;65.74
64833;HTU21D;51290;45.060;38.948;2023-04-03T06:20:21;11.91;65.84
64833;HTU21D;51290;45.060;38.948;2023-04-03T06:22:48;11.90;65.86
64833;HTU21D;51290;45.060;38.948;2023-04-03T06:25:14;11.90;66.07
64833;HTU21D;51290;45.060;38.948;2023-04-03T06:27:43;11.91;66.17
64833;HTU21D;51290;45.060;38.948;2023-04-03T06:30:09;11.93;66.36
64833;HTU21D;51290;45.060;38.948;2023-04-03T06:32:36;11.94;66.55
64833;HTU21D;51290;45.060;38.948;2023-04-03T06:35:04;11.98;66.75
64833;HTU21D;51290;45.060;38.948;2023-04-03T06:37:30;12.02;66.84
64833;HTU21D;51290;45.060;38.948;2023-04-03T06:39:58;12.08;66.97
64833;HTU21D;51290;45.060;38.948;2023-04-03T06:42:26;12.12;67.06
64833;HTU21D;51290;45.060;38.948;2023-04-03T06:45:06;12.15;67.08
64833;HTU21D;51290;45.060;38.948;2023-04-03T06:47:33;12.16;67.15
64833;HTU21D;51290;45.060;38.948;2023-04-03T06:49:59;12.20;67.23
64833;HTU21D;51290;45.060;38.948;2023-04-03T06:52:25;12.19;67.26
64833;HTU21D;51290;45.060;38.948;2023-04-03T06:54:52;12.17;67.27
64833;HTU21D;51290;45.060;38.948;2023-04-03T06:57:22;12.15;67.42
64833;HTU21D;51290;45.060;38.948;2023-04-03T06:59:49;12.10;67.49
64833;HTU21D;51290;45.060;38.948;2023-04-03T07:02:15;12.06;67.54
64833;HTU21D;51290;45.060;38.948;2023-04-03T07:04:41;12.01;67.58
64833;HTU21D;51290;45.060;38.948;2023-04-03T07:07:07;11.99;67.65
64833;HTU21D;51290;45.060;38.948;2023-04-03T07:09:33;11.99;67.75
64833;HTU21D;51290;45.060;38.948;2023-04-03T07:11:59;11.99;67.77
64833;HTU21D;51290;45.060;38.948;2023-04-03T07:14:25;12.00;67.81
64833;HTU21D;51290;45.060;38.948;2023-04-03T07:16:51;12.03;67.81
64833;HTU21D;51290;45.060;38.948;2023-04-03T07:19:17;12.06;67.84
64833;HTU21D;51290;45.060;38.948;2023-04-03T07:21:44;12.06;67.79
64833;HTU21D;51290;45.060;38.948;2023-04-03T07:24:10;12.05;67.81
64833;HTU21D;51290;45.060;38.948;2023-04-03T07:26:36;12.03;67.86
64833;HTU21D;51290;45.060;38.948;2023-04-03T07:29:03;12.01;67.89
64833;HTU21D;51290;45.060;38.948;2023-04-03T07:31:29;12.01;67.99
64833;HTU21D;51290;45.060;38.948;2023-04-03T07:33:54;11.99;68.04
64833;HTU21D;51290;45.060;38.948;2023-04-03T07:36:22;11.99;68.09
64833;HTU21D;51290;45.060;38.948;2023-04-03T07:38:48;11.97;68.08
64833;HTU21D;51290;45.060;38.948;2023-04-03T07:41:16;11.93;68.20
64833;HTU21D;51290;45.060;38.948;2023-04-03T07:43:44;11.90;68.35
64833;HTU21D;51290;45.060;38.948;2023-04-03T07:46:11;11.86;68.46
64833;HTU21D;51290;45.060;38.948;2023-04-03T07:48:37;11.84;68.56
64833;HTU21D;51290;45.060;38.948;2023-04-03T07:51:04;11.82;68.71
64833;HTU21D;51290;45.060;38.948;2023-04-03T07:53:30;11.82;68.84
64833;HTU21D;51290;45.060;38.948;2023-04-03T07:55:59;11.83;68.95
64833;HTU21D;51290;45.060;38.948;2023-04-03T07:58:25;11.85;68.95
64833;HTU21D;51290;45.060;38.948;2023-04-03T08:00:52;11.89;69.07
64833;HTU21D;51290;45.060;38.948;2023-04-03T08:03:18;11.92;69.09
64833;HTU21D;51290;45.060;38.948;2023-04-03T08:05:45;11.94;69.17
64833;HTU21D;51290;45.060;38.948;2023-04-03T08:08:13;11.98;69.30
64833;HTU21D;51290;45.060;38.948;2023-04-03T08:10:40;12.04;69.36
64833;HTU21D;51290;45.060;38.948;2023-04-03T08:13:07;12.06;69.31
64833;HTU21D;51290;45.060;38.948;2023-04-03T08:15:34;12.11;69.27
64833;HTU21D;51290;45.060;38.948;2023-04-03T08:18:01;12.14;69.36
64833;HTU21D;51290;45.060;38.948;2023-04-03T08:20:28;12.16;69.39
64833;HTU21D;51290;45.060;38.948;2023-04-03T08:22:54;12.22;69.41
64833;HTU21D;51290;45.060;38.948;2023-04-03T08:25:20;12.30;69.38
64833;HTU21D;51290;45.060;38.948;2023-04-03T08:27:46;12.35;69.31
64833;HTU21D;51290;45.060;38.948;2023-04-03T08:30:13;12.42;69.25
64833;HTU21D;51290;45.060;38.948;2023-04-03T08:32:39;12.46;69.26
64833;HTU21D;51290;45.060;38.948;2023-04-03T08:35:07;12.47;69.32
64833;HTU21D;51290;45.060;38.948;2023-04-03T08:37:37;12.47;69.35
64833;HTU21D;51290;45.060;38.948;2023-04-03T08:40:05;12.47;69.46
64833;HTU21D;51290;45.060;38.948;2023-04-03T08:45:26;12.42;69.60
64833;HTU21D;51290;45.060;38.948;2023-04-03T08:48:05;12.38;69.78
64833;HTU21D;51290;45.060;38.948;2023-04-03T08:50:49;12.36;69.99
64833;HTU21D;51290;45.060;38.948;2023-04-03T08:53:19;12.33;70.19
64833;HTU21D;51290;45.060;38.948;2023-04-03T08:55:50;12.32;70.44
64833;HTU21D;51290;45.060;38.948;2023-04-03T08:58:20;12.32;70.59
64833;HTU21D;51290;45.060;38.948;2023-04-03T09:01:06;12.32;70.75
64833;HTU21D;51290;45.060;38.948;2023-04-03T09:03:38;12.36;70.91
64833;HTU21D;51290;45.060;38.948;2023-04-03T09:06:31;12.41;71.00
64833;HTU21D;51290;45.060;38.948;2023-04-03T09:09:17;12.47;71.10
64833;HTU21D;51290;45.060;38.948;2023-04-03T09:14:32;12.64;70.97
64833;HTU21D;51290;45.060;38.948;2023-04-03T09:17:10;12.75;70.81
64833;HTU21D;51290;45.060;38.948;2023-04-03T09:19:58;12.87;70.83
64833;HTU21D;51290;45.060;38.948;2023-04-03T09:22:32;13.01;70.76
64833;HTU21D;51290;45.060;38.948;2023-04-03T09:25:27;13.15;70.64
64833;HTU21D;51290;45.060;38.948;2023-04-03T09:27:52;13.30;70.59
64833;HTU21D;51290;45.060;38.948;2023-04-03T09:30:21;13.43;70.52
64833;HTU21D;51290;45.060;38.948;2023-04-03T09:32:51;13.51;70.37
64833;HTU21D;51290;45.060;38.948;2023-04-03T09:35:29;13.63;70.26
64833;HTU21D;51290;45.060;38.948;2023-04-03T09:38:02;13.76;70.21
64833;HTU21D;51290;45.060;38.948;2023-04-03T09:40:48;13.95;70.00
64833;HTU21D;51290;45.060;38.948;2023-04-03T09:43:51;14.11;69.82
64833;HTU21D;51290;45.060;38.948;2023-04-03T09:46:24;14.32;69.55
64833;HTU21D;51290;45.060;38.948;2023-04-03T09:48:59;14.47;69.34
64833;HTU21D;51290;45.060;38.948;2023-04-03T09:51:27;14.56;69.13
64833;HTU21D;51290;45.060;38.948;2023-04-03T09:53:55;14.67;69.15
64833;HTU21D;51290;45.060;38.948;2023-04-03T09:56:29;14.78;69.10
64833;HTU21D;51290;45.060;38.948;2023-04-03T10:01:31;14.98;68.83
64833;HTU21D;51290;45.060;38.948;2023-04-03T10:04:15;15.04;68.64
64833;HTU21D;51290;45.060;38.948;2023-04-03T10:06:42;15.00;68.28
64833;HTU21D;51290;45.060;38.948;2023-04-03T10:09:21;14.94;68.24
64833;HTU21D;51290;45.060;38.948;2023-04-03T10:12:04;14.83;68.25
64833;HTU21D;51290;45.060;38.948;2023-04-03T10:14:38;14.77;68.30
64833;HTU21D;51290;45.060;38.948;2023-04-03T10:22:51;14.70;68.42
64833;HTU21D;51290;45.060;38.948;2023-04-03T10:25:39;14.67;68.30
64833;HTU21D;51290;45.060;38.948;2023-04-03T10:31:25;14.63;68.35
64833;HTU21D;51290;45.060;38.948;2023-04-03T10:33:55;14.60;68.25
64833;HTU21D;51290;45.060;38.948;2023-04-03T10:36:33;14.60;68.25
64833;HTU21D;51290;45.060;38.948;2023-04-03T10:39:30;14.60;68.23
64833;HTU21D;51290;45.060;38.948;2023-04-03T10:42:14;14.62;68.33
64833;HTU21D;51290;45.060;38.948;2023-04-03T10:50:08;14.91;68.38
64833;HTU21D;51290;45.060;38.948;2023-04-03T10:52:47;15.07;68.13
64833;HTU21D;51290;45.060;38.948;2023-04-03T10:58:06;15.28;67.74
64833;HTU21D;51290;45.060;38.948;2023-04-03T11:00:39;15.32;67.49
64833;HTU21D;51290;45.060;38.948;2023-04-03T11:03:13;15.32;67.37
64833;HTU21D;51290;45.060;38.948;2023-04-03T11:05:44;15.32;67.38
64833;HTU21D;51290;45.060;38.948;2023-04-03T11:11:13;15.40;67.36
64833;HTU21D;51290;45.060;38.948;2023-04-03T11:13:56;15.46;67.42
64833;HTU21D;51290;45.060;38.948;2023-04-03T11:16:27;15.47;67.23
64833;HTU21D;51290;45.060;38.948;2023-04-03T11:19:16;15.48;67.23
64833;HTU21D;51290;45.060;38.948;2023-04-03T11:21:57;15.51;67.04
64833;HTU21D;51290;45.060;38.948;2023-04-03T11:24:29;15.49;66.97
64833;HTU21D;51290;45.060;38.948;2023-04-03T11:27:00;15.51;67.07
64833;HTU21D;51290;45.060;38.948;2023-04-03T11:29:35;15.55;67.04
64833;HTU21D;51290;45.060;38.948;2023-04-03T11:34:44;15.58;66.84
64833;HTU21D;51290;45.060;38.948;2023-04-03T11:40:05;15.63;66.82
64833;HTU21D;51290;45.060;38.948;2023-04-03T11:42:46;15.69;66.86
64833;HTU21D;51290;45.060;38.948;2023-04-03T11:45:36;15.74;66.77
64833;HTU21D;51290;45.060;38.948;2023-04-03T11:48:07;15.78;66.67
64833;HTU21D;51290;45.060;38.948;2023-04-03T11:50:51;15.84;66.47
64833;HTU21D;51290;45.060;38.948;2023-04-03T11:56:00;15.92;66.46
64833;HTU21D;51290;45.060;38.948;2023-04-03T11:58:33;16.04;66.49
64833;HTU21D;51290;45.060;38.948;2023-04-03T12:01:03;16.18;66.29
64833;HTU21D;51290;45.060;38.948;2023-04-03T12:03:31;16.28;66.08
64833;HTU21D;51290;45.060;38.948;2023-04-03T12:13:40;16.54;65.43
64833;HTU21D;51290;45.060;38.948;2023-04-03T12:16:07;16.61;65.26
64833;HTU21D;51290;45.060;38.948;2023-04-03T12:27:02;17.20;64.50
64833;HTU21D;51290;45.060;38.948;2023-04-03T12:46:53;17.32;62.93
64833;HTU21D;51290;45.060;38.948;2023-04-03T12:49:41;17.35;62.82
64833;HTU21D;51290;45.060;38.948;2023-04-03T12:52:41;17.37;62.73
64833;HTU21D;51290;45.060;38.948;2023-04-03T12:55:15;17.39;62.53
64833;HTU21D;51290;45.060;38.948;2023-04-03T12:57:41;17.37;62.21
64833;HTU21D;51290;45.060;38.948;2023-04-03T13:00:34;17.33;62.17
64833;HTU21D;51290;45.060;38.948;2023-04-03T13:03:02;17.30;62.16
64833;HTU21D;51290;45.060;38.948;2023-04-03T13:05:30;17.30;62.21
64833;HTU21D;51290;45.060;38.948;2023-04-03T13:08:02;17.32;62.16
64833;HTU21D;51290;45.060;38.948;2023-04-03T13:10:29;17.35;61.93
64833;HTU21D;51290;45.060;38.948;2023-04-03T13:13:07;17.38;61.56
64833;HTU21D;51290;45.060;38.948;2023-04-03T13:15:45;17.40;61.36
64833;HTU21D;51290;45.060;38.948;2023-04-03T13:18:31;17.38;60.98
64833;HTU21D;51290;45.060;38.948;2023-04-03T13:21:01;17.32;60.29
64833;HTU21D;51290;45.060;38.948;2023-04-03T13:23:29;17.21;60.70
64833;HTU21D;51290;45.060;38.948;2023-04-03T13:25:56;17.08;60.78
64833;HTU21D;51290;45.060;38.948;2023-04-03T13:28:26;16.95;60.87
64833;HTU21D;51290;45.060;38.948;2023-04-03T13:33:29;16.77;61.09
64833;HTU21D;51290;45.060;38.948;2023-04-03T13:36:21;16.69;61.15
64833;HTU21D;51290;45.060;38.948;2023-04-03T13:38:58;16.61;61.11
64833;HTU21D;51290;45.060;38.948;2023-04-03T13:46:53;16.34;60.99
64833;HTU21D;51290;45.060;38.948;2023-04-03T13:52:26;16.12;61.09
64833;HTU21D;51290;45.060;38.948;2023-04-03T13:54:59;16.04;61.21
64833;HTU21D;51290;45.060;38.948;2023-04-03T13:57:27;15.97;61.34
64833;HTU21D;51290;45.060;38.948;2023-04-03T13:59:53;15.89;61.44
64833;HTU21D;51290;45.060;38.948;2023-04-03T14:02:31;15.84;61.63
64833;HTU21D;51290;45.060;38.948;2023-04-03T14:05:00;15.76;61.70
64833;HTU21D;51290;45.060;38.948;2023-04-03T14:07:29;15.71;61.77
64833;HTU21D;51290;45.060;38.948;2023-04-03T14:09:56;15.65;61.83
64833;HTU21D;51290;45.060;38.948;2023-04-03T14:12:29;15.59;61.94
64833;HTU21D;51290;45.060;38.948;2023-04-03T14:14:57;15.55;62.01
64833;HTU21D;51290;45.060;38.948;2023-04-03T14:17:26;15.49;62.07
64833;HTU21D;51290;45.060;38.948;2023-04-03T14:19:54;15.44;62.17
64833;HTU21D;51290;45.060;38.948;2023-04-03T14:22:28;15.37;62.25
64833;HTU21D;51290;45.060;38.948;2023-04-03T14:24:54;15.33;62.34
64833;HTU21D;51290;45.060;38.948;2023-04-03T14:27:22;15.30;62.43
64833;HTU21D;51290;45.060;38.948;2023-04-03T14:29:50;15.25;62.49
64833;HTU21D;51290;45.060;38.948;2023-04-03T14:32:18;15.21;62.52
64833;HTU21D;51290;45.060;38.948;2023-04-03T14:34:45;15.15;62.55
64833;HTU21D;51290;45.060;38.948;2023-04-03T14:37:14;15.08;62.57
64833;HTU21D;51290;45.060;38.948;2023-04-03T14:39:41;15.00;62.64
64833;HTU21D;51290;45.060;38.948;2023-04-03T14:42:17;14.94;62.81
64833;HTU21D;51290;45.060;38.948;2023-04-03T14:44:44;14.88;62.87
64833;HTU21D;51290;45.060;38.948;2023-04-03T14:47:15;14.82;62.97
64833;HTU21D;51290;45.060;38.948;2023-04-03T14:49:42;14.79;63.06
64833;HTU21D;51290;45.060;38.948;2023-04-03T14:52:30;14.78;63.15
64833;HTU21D;51290;45.060;38.948;2023-04-03T14:54:56;14.74;63.20
64833;HTU21D;51290;45.060;38.948;2023-04-03T14:57:25;14.77;63.23
64833;HTU21D;51290;45.060;38.948;2023-04-03T14:59:51;14.78;63.30
64833;HTU21D;51290;45.060;38.948;2023-04-03T15:02:32;14.79;63.33
64833;HTU21D;51290;45.060;38.948;2023-04-03T15:04:59;14.78;63.35
64833;HTU21D;51290;45.060;38.948;2023-04-03T15:07:28;14.77;63.44
64833;HTU21D;51290;45.060;38.948;2023-04-03T15:09:55;14.73;63.36
64833;HTU21D;51290;45.060;38.948;2023-04-03T15:12:24;14.71;63.34
64833;HTU21D;51290;45.060;38.948;2023-04-03T15:14:50;14.66;63.37
64833;HTU21D;51290;45.060;38.948;2023-04-03T15:17:21;14.62;63.43
64833;HTU21D;51290;45.060;38.948;2023-04-03T15:19:48;14.56;63.48
64833;HTU21D;51290;45.060;38.948;2023-04-03T15:22:16;14.50;63.60
64833;HTU21D;51290;45.060;38.948;2023-04-03T15:24:43;14.43;63.61
64833;HTU21D;51290;45.060;38.948;2023-04-03T15:27:10;14.38;63.76
64833;HTU21D;51290;45.060;38.948;2023-04-03T15:29:38;14.35;63.91
64833;HTU21D;51290;45.060;38.948;2023-04-03T15:32:04;14.29;64.02
64833;HTU21D;51290;45.060;38.948;2023-04-03T15:34:31;14.25;64.10
64833;HTU21D;51290;45.060;38.948;2023-04-03T15:36:57;14.21;64.24
64833;HTU21D;51290;45.060;38.948;2023-04-03T15:39:25;14.17;64.33
64833;HTU21D;51290;45.060;38.948;2023-04-03T15:41:51;14.12;64.43
64833;HTU21D;51290;45.060;38.948;2023-04-03T15:44:18;14.08;64.58
64833;HTU21D;51290;45.060;38.948;2023-04-03T15:46:48;14.05;64.76
64833;HTU21D;51290;45.060;38.948;2023-04-03T15:49:18;14.00;64.97
64833;HTU21D;51290;45.060;38.948;2023-04-03T15:51:44;13.98;64.92
64833;HTU21D;51290;45.060;38.948;2023-04-03T15:54:11;13.91;65.00
64833;HTU21D;51290;45.060;38.948;2023-04-03T15:56:37;13.88;65.10
64833;HTU21D;51290;45.060;38.948;2023-04-03T15:59:03;13.83;65.24
64833;HTU21D;51290;45.060;38.948;2023-04-03T16:01:29;13.78;65.33
64833;HTU21D;51290;45.060;38.948;2023-04-03T16:03:55;13.75;65.34
64833;HTU21D;51290;45.060;38.948;2023-04-03T16:06:21;13.70;65.53
64833;HTU21D;51290;45.060;38.948;2023-04-03T16:08:49;13.66;65.59
64833;HTU21D;51290;45.060;38.948;2023-04-03T16:11:15;13.62;65.70
64833;HTU21D;51290;45.060;38.948;2023-04-03T16:13:41;13.60;65.80
64833;HTU21D;51290;45.060;38.948;2023-04-03T16:16:08;13.55;65.77
64833;HTU21D;51290;45.060;38.948;2023-04-03T16:18:35;13.50;65.74
64833;HTU21D;51290;45.060;38.948;2023-04-03T16:21:01;13.48;65.76
64833;HTU21D;51290;45.060;38.948;2023-04-03T16:23:27;13.44;65.78
64833;HTU21D;51290;45.060;38.948;2023-04-03T16:25:53;13.39;65.77
64833;HTU21D;51290;45.060;38.948;2023-04-03T16:28:19;13.38;65.75
64833;HTU21D;51290;45.060;38.948;2023-04-03T16:30:46;13.35;65.85
64833;HTU21D;51290;45.060;38.948;2023-04-03T16:33:13;13.34;65.88
64833;HTU21D;51290;45.060;38.948;2023-04-03T16:35:39;13.35;65.98
64833;HTU21D;51290;45.060;38.948;2023-04-03T16:38:07;13.35;66.00
64833;HTU21D;51290;45.060;38.948;2023-04-03T16:40:33;13.34;66.14